Waf_motion — 4RBK — position and weather

sailwx.info

Track history (hours):
 
Tides and Currents Weather Stations Pressure Air Temp Water Temp Dewpoint Dewpoint Depression Visibility Wind Speed Wind Dir Waves Ship Positions

Waf_motion

Last reported at 2015-Jul-28 11:04 UTC. Time now 2015-Jul-29 02:41 UTC.
Position N 31°23' W 011°21'.

Length 140 m; draft 8 m.

Type: Ship (hazmat cat A). MMSI: 417222324.

Date/timePositionNaut miles runAvg speedWind from/ knotsBaromVisibWave heightAir tempDewpointWater temp
2015-Jul-28 11:04N 31°23' W 011°21'13312.2
2015-Jul-28 00:08N 29°25' W 012°33'712.2
2015-Jul-27 23:33N 29°19' W 012°37'1212.2
2015-Jul-27 22:34N 29°08' W 012°43'2812.1
2015-Jul-27 20:13N 28°43' W 012°59'3312.0
2015-Jul-27 17:31N 28°15' W 013°17'1312.1
2015-Jul-27 16:29N 28°04' W 013°23'1211.9
2015-Jul-27 15:29N 27°55' W 013°32'1112.0
2015-Jul-27 14:33N 27°47' W 013°41'3912.1
2015-Jul-27 11:18N 27°20' W 014°14'  
Track history (hours):
 
Tides and Currents Weather Stations Pressure Air Temp Water Temp Dewpoint Dewpoint Depression Visibility Wind Speed Wind Dir Waves Ship Positions

Waf_motion

Last reported at 2015-Jul-28 11:04 UTC. Time now 2015-Jul-29 02:41 UTC.
Position N 31°23' W 011°21'.

Length 140 m; draft 8 m.

Type: Ship (hazmat cat A). MMSI: 417222324.

Date/timePositionNaut miles runAvg speedWind from/ knotsBaromVisibWave heightAir tempDewpointWater temp
2015-Jul-28 11:04N 31°23' W 011°21'13312.2
2015-Jul-28 00:08N 29°25' W 012°33'712.2
2015-Jul-27 23:33N 29°19' W 012°37'1212.2
2015-Jul-27 22:34N 29°08' W 012°43'2812.1
2015-Jul-27 20:13N 28°43' W 012°59'3312.0
2015-Jul-27 17:31N 28°15' W 013°17'1312.1
2015-Jul-27 16:29N 28°04' W 013°23'1211.9
2015-Jul-27 15:29N 27°55' W 013°32'1112.0
2015-Jul-27 14:33N 27°47' W 013°41'3912.1
2015-Jul-27 11:18N 27°20' W 014°14'  

Dump ship's entire track history